University Oxford Airport Oxford US
ICAO: KUOX
IATA: UOX
Category: Medium
Scheduled Services: No

Elevation: 452 ft
TransAlt. 18000 ft.

Airport Communications:
AWOS 3:132.725
MEMPHIS CNTR:128.5
CTAF/UNICOM:123

KUOX Zoom In..

Runways:

(A) RW 09 length 5600 ft width 100 ft
LOC 111.70 / hdg 90

(B) RW 27 length 5600 ft width 100 ft
LOC 111.70 / hdg 270

Location; KUOX
Day. 23 / Time. 07.55 Zulu
* Altimeter: 29.86
* Temperature: 22° c. 71.6°f.
* Wind from: 030° Speed 04 kn.
Dewpoint: 19° c.
Visibility: 10 Statute Miles.
Clouds: Broken 5500 ft.
Clouds: Broken 6500 ft.

KUOX 230755Z AUTO 03004KT 10SM BKN055 BKN065 22/19 A2986 RMK AO2


Wind From 030°
Speed 04 kn.

 
 
jpsmedia.com for Web Design worldairports.se 2018   terms of use